Aeroporto :
LOGIN :

Iscrizione | Disclaimer

   EN    FR    IT 

 










Sommario :    VFR   VFR Marginale   IFR   IFR Intensivo   IFR Molto Intensivo
Visibilità : 
Base nubi : 
>= 8 km
>= 3000ft
5 / 8 km
1000 / 3000 ft
1500m / 5 km
500 / 1000 ft
800 / 1500m
200 / 500 ft
< 800m
< 200 ft
Simboli :   Temporali  Nebbia  Neve Forte  Precipitazioni Forti  Vento > 20 kt
SIGMETs :   Varie  Temporali  Ghiacco  Turbolenza  Onda orograficha  Ceneri Vulcaniche






- Altitudine del aeroporto : 1768 ft


LEHC - Huesca Pirineos

ULTIMO METAR :
  • 230030Z AUTO 04002KT CAVOK 15/11 Q1014

METARs OBSOLETI :
  • 230000Z AUTO 02004KT 350V050 CAVOK 16/11 Q1014
  • 222330Z AUTO 01004KT CAVOK 16/11 Q1014
  • 222300Z AUTO 00000KT CAVOK 14/11 Q1014
  • 222230Z AUTO 00000KT CAVOK 16/11 Q1014
  • 222200Z AUTO VRB02KT CAVOK 15/11 Q1014

TAF TAF LEHC
Valido dal 22 a 15 ore il 23 a 15 ore UTC


221400Z 2215/2315 25010KT 9999 FEW060 TX27/2314Z TN12/2305Z
BECMG 2218/2220 VRB04KT
BECMG 2310/2312 25010KT



MetMap, La meteo Aeronautica in un colpo d'occhio ! - Copyright ORBIFLY Dicembre 2007 - Disclaimer

ORBIFLY MET'MAP TEAM :

Programmazione e sviluppo : Alexandra Zaïnal
Concezione : Baudouin d'Aumeries
Aiuto per la programmazione : Marc-Olivier Méhu
Supporto tecnico e logistico : Manuel Goepfert
Aiuto per la traduzione : Arnaldo La Scala

Contatto : metmap@orbifly.com




FONTI E CREDITI :

   NOAA